CYHZ/YHZ METAR and TAF weather

Enter ICAO airport designator
Station Type Date Time Source
CYHZ METAR 2022/06/28 09:40 UTC NOAA

CYHZ 280940Z 19010KT 1/2SM R23/P6000FT/D R14/P6000FT/N FG VV002 17/17 A2999 RMK FG8 SLP158 DENSITY ALT 800FT


Station Type Date Time Source
CYHZ Decoded METAR 2022/06/28 09:40 UTC NOAA

Halifax International Airport , Canada (CYHZ) 44-53N 063-30W
Jun 28, 2022 - 05:40 AM EDT / 2022.06.28 0940 UTC
Wind: from the S (190 degrees) at 12 MPH (10 KT):0
Visibility: 1/2 mile(s):0
Sky conditions: obscured
Weather: fog
Temperature: 62 F (17 C)
Dew Point: 62 F (17 C)
Relative Humidity: 100%
Pressure (altimeter): 29.99 in. Hg (1015 hPa)
ob: CYHZ 280940Z 19010KT 1/2SM R23/P6000FT/D R14/P6000FT/N FG VV002 17/17 A2999 RMK FG8 SLP158 DENSITY ALT 800FT
cycle: 9

Station Type Date Time Source
CYHZ TAF 2022/06/28 09:42 UTC NOAA

TAF CYHZ 280840Z 2809/2906 20012G22KT 1/4SM FG VV002
TEMPO 2809/2815 2SM -SHRA BR OVC004
FM281500 20012G22KT 2 1/2SM -SHRA BR BKN006 OVC012
FM282100 21008KT 1 1/2SM -DZ BR OVC004
FM290000 20005KT 6SM BR SCT003
FM290200 22005KT 3SM BR FEW002 PROB30 2902/2906 1/2SM FG
RMK NXT FCST BY 281200Z

Example: see airport list